FACT

Cape Town International Airport

Cape Town, South Africa
METAR FACT 180800Z 15021KT 9999 FEW035 22/11 Q1019 NOSIG
Observed Flight Rules
Dec-18 @ 08:00 UTC (41 minutes ago) Visual Flight Rules
Wind Visibility Clouds
150° at 21 knots 10,000+ meters
  • Few at 3,500' AGL
Temperatures Readings
Current 22°C / 72°F
Dewpoint 11°C / 52°F
Humidity 50%
Altimeter 30.09" Hg
Pressure 1019 hPa
Elevation 42
METAR FACT 180800Z 15021KT 9999 FEW035 22/11 Q1019 NOSIG
Observed Flight Rules
Dec-18 @ 08:00 UTC
(41 minutes ago)
VFR
Wind Visibility
150° at 21 knots 10,000+ meters
Clouds
  • Few at 3,500' AGL
Temperature Dewpoint
22°C / 72°F 11°C / 52°F
Humidity Altimeter Pressure
50% 30.09" Hg 1019 hPa